sensor_id;sensor_type;location;lat;lon;timestamp;P1;durP1;ratioP1;P2;durP2;ratioP2
4652;SDS011;9900;48.738;9.306;2022-07-23T00:00:41;5.63;;;4.90;;
4652;SDS011;9900;48.738;9.306;2022-07-23T00:03:10;7.23;;;5.50;;
4652;SDS011;9900;48.738;9.306;2022-07-23T00:05:39;5.07;;;4.50;;
4652;SDS011;9900;48.738;9.306;2022-07-23T00:08:08;6.30;;;4.50;;
4652;SDS011;9900;48.738;9.306;2022-07-23T00:10:40;4.83;;;4.30;;
4652;SDS011;9900;48.738;9.306;2022-07-23T00:13:09;5.70;;;3.97;;
4652;SDS011;9900;48.738;9.306;2022-07-23T00:15:40;7.50;;;5.17;;
4652;SDS011;9900;48.738;9.306;2022-07-23T00:18:09;5.90;;;4.23;;
4652;SDS011;9900;48.738;9.306;2022-07-23T00:20:37;6.70;;;4.30;;
4652;SDS011;9900;48.738;9.306;2022-07-23T00:23:06;6.00;;;4.50;;
4652;SDS011;9900;48.738;9.306;2022-07-23T00:25:35;5.20;;;3.70;;
4652;SDS011;9900;48.738;9.306;2022-07-23T00:28:04;3.77;;;3.47;;
4652;SDS011;9900;48.738;9.306;2022-07-23T00:30:33;5.50;;;4.03;;
4652;SDS011;9900;48.738;9.306;2022-07-23T00:33:05;6.93;;;3.40;;
4652;SDS011;9900;48.738;9.306;2022-07-23T00:35:36;4.03;;;3.40;;
4652;SDS011;9900;48.738;9.306;2022-07-23T00:38:08;5.93;;;3.60;;
4652;SDS011;9900;48.738;9.306;2022-07-23T00:40:38;9.23;;;3.30;;
4652;SDS011;9900;48.738;9.306;2022-07-23T00:43:07;6.53;;;3.43;;
4652;SDS011;9900;48.738;9.306;2022-07-23T00:45:36;6.47;;;3.33;;
4652;SDS011;9900;48.738;9.306;2022-07-23T00:48:06;4.50;;;3.60;;
4652;SDS011;9900;48.738;9.306;2022-07-23T00:50:35;3.47;;;2.80;;
4652;SDS011;9900;48.738;9.306;2022-07-23T00:53:05;4.27;;;3.27;;
4652;SDS011;9900;48.738;9.306;2022-07-23T00:55:35;4.33;;;3.47;;
4652;SDS011;9900;48.738;9.306;2022-07-23T00:58:05;4.43;;;3.50;;
4652;SDS011;9900;48.738;9.306;2022-07-23T01:00:34;3.83;;;3.43;;
4652;SDS011;9900;48.738;9.306;2022-07-23T01:03:03;11.60;;;3.87;;
4652;SDS011;9900;48.738;9.306;2022-07-23T01:05:33;8.63;;;4.33;;
4652;SDS011;9900;48.738;9.306;2022-07-23T01:08:02;4.17;;;3.73;;
4652;SDS011;9900;48.738;9.306;2022-07-23T01:10:31;3.50;;;3.30;;
4652;SDS011;9900;48.738;9.306;2022-07-23T01:13:01;4.37;;;2.97;;
4652;SDS011;9900;48.738;9.306;2022-07-23T01:15:31;4.80;;;3.30;;
4652;SDS011;9900;48.738;9.306;2022-07-23T01:18:00;3.40;;;2.73;;
4652;SDS011;9900;48.738;9.306;2022-07-23T01:20:30;5.07;;;3.13;;
4652;SDS011;9900;48.738;9.306;2022-07-23T01:23:01;3.33;;;3.07;;
4652;SDS011;9900;48.738;9.306;2022-07-23T01:25:30;3.90;;;2.70;;
4652;SDS011;9900;48.738;9.306;2022-07-23T01:27:58;3.50;;;3.20;;
4652;SDS011;9900;48.738;9.306;2022-07-23T01:30:27;3.47;;;3.17;;
4652;SDS011;9900;48.738;9.306;2022-07-23T01:32:56;4.70;;;3.10;;
4652;SDS011;9900;48.738;9.306;2022-07-23T01:35:25;3.27;;;2.97;;
4652;SDS011;9900;48.738;9.306;2022-07-23T01:37:54;2.83;;;2.63;;
4652;SDS011;9900;48.738;9.306;2022-07-23T01:40:24;3.50;;;3.20;;
4652;SDS011;9900;48.738;9.306;2022-07-23T01:42:54;3.33;;;2.87;;
4652;SDS011;9900;48.738;9.306;2022-07-23T01:45:22;3.20;;;2.90;;
4652;SDS011;9900;48.738;9.306;2022-07-23T01:47:51;2.90;;;2.60;;
4652;SDS011;9900;48.738;9.306;2022-07-23T01:50:20;10.23;;;3.40;;
4652;SDS011;9900;48.738;9.306;2022-07-23T01:52:49;4.90;;;3.43;;
4652;SDS011;9900;48.738;9.306;2022-07-23T01:55:18;4.07;;;3.43;;
4652;SDS011;9900;48.738;9.306;2022-07-23T01:57:48;5.80;;;4.10;;
4652;SDS011;9900;48.738;9.306;2022-07-23T02:00:16;6.27;;;3.77;;
4652;SDS011;9900;48.738;9.306;2022-07-23T02:02:45;3.50;;;2.97;;
4652;SDS011;9900;48.738;9.306;2022-07-23T02:05:14;3.63;;;3.33;;
4652;SDS011;9900;48.738;9.306;2022-07-23T02:07:44;4.40;;;3.70;;
4652;SDS011;9900;48.738;9.306;2022-07-23T02:10:13;5.70;;;4.30;;
4652;SDS011;9900;48.738;9.306;2022-07-23T02:12:42;5.63;;;3.80;;
4652;SDS011;9900;48.738;9.306;2022-07-23T02:15:12;5.97;;;4.10;;
4652;SDS011;9900;48.738;9.306;2022-07-23T02:17:41;4.80;;;3.70;;
4652;SDS011;9900;48.738;9.306;2022-07-23T02:20:10;5.97;;;3.73;;
4652;SDS011;9900;48.738;9.306;2022-07-23T02:22:39;3.60;;;3.30;;
4652;SDS011;9900;48.738;9.306;2022-07-23T02:25:08;5.70;;;3.37;;
4652;SDS011;9900;48.738;9.306;2022-07-23T02:27:37;4.20;;;3.60;;
4652;SDS011;9900;48.738;9.306;2022-07-23T02:30:07;9.60;;;3.77;;
4652;SDS011;9900;48.738;9.306;2022-07-23T02:32:37;4.43;;;3.77;;
4652;SDS011;9900;48.738;9.306;2022-07-23T02:35:07;4.03;;;3.63;;
4652;SDS011;9900;48.738;9.306;2022-07-23T02:37:36;4.40;;;3.63;;
4652;SDS011;9900;48.738;9.306;2022-07-23T02:40:05;4.43;;;3.40;;
4652;SDS011;9900;48.738;9.306;2022-07-23T02:42:34;6.03;;;3.73;;
4652;SDS011;9900;48.738;9.306;2022-07-23T02:45:03;5.83;;;3.57;;
4652;SDS011;9900;48.738;9.306;2022-07-23T02:47:32;5.60;;;3.20;;
4652;SDS011;9900;48.738;9.306;2022-07-23T02:50:03;6.60;;;3.90;;
4652;SDS011;9900;48.738;9.306;2022-07-23T02:52:34;3.70;;;3.40;;
4652;SDS011;9900;48.738;9.306;2022-07-23T02:55:03;4.80;;;3.70;;
4652;SDS011;9900;48.738;9.306;2022-07-23T02:57:33;4.33;;;3.93;;
4652;SDS011;9900;48.738;9.306;2022-07-23T03:00:02;4.60;;;3.83;;
4652;SDS011;9900;48.738;9.306;2022-07-23T03:02:31;6.90;;;4.10;;
4652;SDS011;9900;48.738;9.306;2022-07-23T03:05:00;4.03;;;3.60;;
4652;SDS011;9900;48.738;9.306;2022-07-23T03:07:30;4.03;;;3.67;;
4652;SDS011;9900;48.738;9.306;2022-07-23T03:09:59;4.20;;;3.80;;
4652;SDS011;9900;48.738;9.306;2022-07-23T03:12:28;4.30;;;3.60;;
4652;SDS011;9900;48.738;9.306;2022-07-23T03:14:56;4.13;;;3.73;;
4652;SDS011;9900;48.738;9.306;2022-07-23T03:17:25;4.20;;;3.90;;
4652;SDS011;9900;48.738;9.306;2022-07-23T03:19:54;7.50;;;4.17;;
4652;SDS011;9900;48.738;9.306;2022-07-23T03:22:23;4.13;;;3.73;;
4652;SDS011;9900;48.738;9.306;2022-07-23T03:24:53;5.00;;;3.77;;
4652;SDS011;9900;48.738;9.306;2022-07-23T03:27:22;4.50;;;4.07;;
4652;SDS011;9900;48.738;9.306;2022-07-23T03:29:52;6.17;;;3.70;;
4652;SDS011;9900;48.738;9.306;2022-07-23T03:32:21;7.97;;;4.10;;
4652;SDS011;9900;48.738;9.306;2022-07-23T03:34:50;4.73;;;4.23;;
4652;SDS011;9900;48.738;9.306;2022-07-23T03:37:20;4.27;;;3.40;;
4652;SDS011;9900;48.738;9.306;2022-07-23T03:39:49;4.73;;;3.87;;
4652;SDS011;9900;48.738;9.306;2022-07-23T03:42:20;7.07;;;4.00;;
4652;SDS011;9900;48.738;9.306;2022-07-23T03:44:48;5.40;;;4.37;;
4652;SDS011;9900;48.738;9.306;2022-07-23T03:47:17;4.63;;;3.80;;
4652;SDS011;9900;48.738;9.306;2022-07-23T03:49:49;6.63;;;4.10;;
4652;SDS011;9900;48.738;9.306;2022-07-23T03:52:18;6.30;;;4.57;;
4652;SDS011;9900;48.738;9.306;2022-07-23T03:54:47;4.80;;;3.90;;
4652;SDS011;9900;48.738;9.306;2022-07-23T03:57:16;6.63;;;4.10;;
4652;SDS011;9900;48.738;9.306;2022-07-23T03:59:46;5.60;;;3.93;;
4652;SDS011;9900;48.738;9.306;2022-07-23T04:02:15;4.80;;;4.30;;
4652;SDS011;9900;48.738;9.306;2022-07-23T04:04:44;5.83;;;4.30;;
4652;SDS011;9900;48.738;9.306;2022-07-23T04:07:14;4.50;;;4.10;;
4652;SDS011;9900;48.738;9.306;2022-07-23T04:09:44;6.43;;;4.57;;
4652;SDS011;9900;48.738;9.306;2022-07-23T04:12:13;6.33;;;4.00;;
4652;SDS011;9900;48.738;9.306;2022-07-23T04:14:42;6.33;;;4.03;;
4652;SDS011;9900;48.738;9.306;2022-07-23T04:17:12;6.40;;;4.40;;
4652;SDS011;9900;48.738;9.306;2022-07-23T04:19:41;10.53;;;4.03;;
4652;SDS011;9900;48.738;9.306;2022-07-23T04:22:11;4.50;;;4.10;;
4652;SDS011;9900;48.738;9.306;2022-07-23T04:24:40;7.13;;;4.20;;
4652;SDS011;9900;48.738;9.306;2022-07-23T04:27:08;8.97;;;4.33;;
4652;SDS011;9900;48.738;9.306;2022-07-23T04:29:37;5.13;;;4.63;;
4652;SDS011;9900;48.738;9.306;2022-07-23T04:32:06;4.80;;;3.87;;
4652;SDS011;9900;48.738;9.306;2022-07-23T04:34:37;4.87;;;4.37;;
4652;SDS011;9900;48.738;9.306;2022-07-23T04:37:05;7.00;;;4.43;;
4652;SDS011;9900;48.738;9.306;2022-07-23T04:39:34;5.87;;;4.83;;
4652;SDS011;9900;48.738;9.306;2022-07-23T04:42:03;7.43;;;4.60;;
4652;SDS011;9900;48.738;9.306;2022-07-23T04:44:32;8.33;;;5.00;;
4652;SDS011;9900;48.738;9.306;2022-07-23T04:47:01;5.20;;;4.70;;
4652;SDS011;9900;48.738;9.306;2022-07-23T04:49:30;6.50;;;5.13;;
4652;SDS011;9900;48.738;9.306;2022-07-23T04:52:00;5.07;;;4.53;;
4652;SDS011;9900;48.738;9.306;2022-07-23T04:54:28;5.40;;;4.53;;
4652;SDS011;9900;48.738;9.306;2022-07-23T04:56:57;8.70;;;4.80;;
4652;SDS011;9900;48.738;9.306;2022-07-23T04:59:26;12.77;;;4.97;;
4652;SDS011;9900;48.738;9.306;2022-07-23T05:01:55;5.10;;;4.60;;
4652;SDS011;9900;48.738;9.306;2022-07-23T05:04:24;5.90;;;5.30;;
4652;SDS011;9900;48.738;9.306;2022-07-23T05:06:52;11.33;;;5.33;;
4652;SDS011;9900;48.738;9.306;2022-07-23T05:09:23;7.20;;;4.50;;
4652;SDS011;9900;48.738;9.306;2022-07-23T05:11:52;7.90;;;5.10;;
4652;SDS011;9900;48.738;9.306;2022-07-23T05:14:21;8.50;;;4.83;;
4652;SDS011;9900;48.738;9.306;2022-07-23T05:16:49;5.67;;;4.53;;
4652;SDS011;9900;48.738;9.306;2022-07-23T05:19:18;6.90;;;5.40;;
4652;SDS011;9900;48.738;9.306;2022-07-23T05:21:51;6.27;;;5.30;;
4652;SDS011;9900;48.738;9.306;2022-07-23T05:24:20;5.83;;;5.20;;
4652;SDS011;9900;48.738;9.306;2022-07-23T05:26:50;5.87;;;4.60;;
4652;SDS011;9900;48.738;9.306;2022-07-23T05:29:19;5.30;;;4.63;;
4652;SDS011;9900;48.738;9.306;2022-07-23T05:31:48;8.30;;;5.00;;
4652;SDS011;9900;48.738;9.306;2022-07-23T05:34:16;7.50;;;4.80;;
4652;SDS011;9900;48.738;9.306;2022-07-23T05:36:45;12.30;;;5.50;;
4652;SDS011;9900;48.738;9.306;2022-07-23T05:39:16;8.20;;;5.47;;
4652;SDS011;9900;48.738;9.306;2022-07-23T05:41:44;10.40;;;5.43;;
4652;SDS011;9900;48.738;9.306;2022-07-23T05:44:15;7.57;;;5.00;;
4652;SDS011;9900;48.738;9.306;2022-07-23T05:46:44;7.23;;;4.60;;
4652;SDS011;9900;48.738;9.306;2022-07-23T05:49:13;5.77;;;5.17;;
4652;SDS011;9900;48.738;9.306;2022-07-23T05:51:41;8.37;;;5.27;;
4652;SDS011;9900;48.738;9.306;2022-07-23T05:54:12;8.10;;;5.77;;
4652;SDS011;9900;48.738;9.306;2022-07-23T05:56:41;8.00;;;5.93;;
4652;SDS011;9900;48.738;9.306;2022-07-23T05:59:10;10.07;;;6.20;;
4652;SDS011;9900;48.738;9.306;2022-07-23T06:01:43;8.33;;;5.20;;
4652;SDS011;9900;48.738;9.306;2022-07-23T06:04:14;8.57;;;5.53;;
4652;SDS011;9900;48.738;9.306;2022-07-23T06:06:43;6.20;;;5.60;;
4652;SDS011;9900;48.738;9.306;2022-07-23T06:09:12;6.13;;;5.43;;
4652;SDS011;9900;48.738;9.306;2022-07-23T06:11:41;8.53;;;5.47;;
4652;SDS011;9900;48.738;9.306;2022-07-23T06:14:10;6.33;;;5.03;;
4652;SDS011;9900;48.738;9.306;2022-07-23T06:16:38;6.00;;;5.40;;
4652;SDS011;9900;48.738;9.306;2022-07-23T06:19:08;7.60;;;6.10;;
4652;SDS011;9900;48.738;9.306;2022-07-23T06:21:37;6.70;;;5.23;;
4652;SDS011;9900;48.738;9.306;2022-07-23T06:24:14;7.00;;;5.53;;
4652;SDS011;9900;48.738;9.306;2022-07-23T06:26:43;6.73;;;5.50;;
4652;SDS011;9900;48.738;9.306;2022-07-23T06:29:13;9.27;;;5.77;;
4652;SDS011;9900;48.738;9.306;2022-07-23T06:31:41;8.67;;;5.57;;
4652;SDS011;9900;48.738;9.306;2022-07-23T06:34:12;7.17;;;5.40;;
4652;SDS011;9900;48.738;9.306;2022-07-23T06:36:40;6.13;;;5.03;;
4652;SDS011;9900;48.738;9.306;2022-07-23T06:39:10;6.10;;;5.37;;
4652;SDS011;9900;48.738;9.306;2022-07-23T06:41:40;9.13;;;5.77;;
4652;SDS011;9900;48.738;9.306;2022-07-23T06:44:12;6.40;;;5.57;;
4652;SDS011;9900;48.738;9.306;2022-07-23T06:46:42;6.73;;;6.07;;
4652;SDS011;9900;48.738;9.306;2022-07-23T06:49:12;6.30;;;5.07;;
4652;SDS011;9900;48.738;9.306;2022-07-23T06:51:41;6.50;;;5.27;;
4652;SDS011;9900;48.738;9.306;2022-07-23T06:54:10;6.80;;;6.10;;
4652;SDS011;9900;48.738;9.306;2022-07-23T06:56:39;6.83;;;5.33;;
4652;SDS011;9900;48.738;9.306;2022-07-23T06:59:08;7.97;;;6.00;;
4652;SDS011;9900;48.738;9.306;2022-07-23T07:01:37;6.10;;;5.27;;
4652;SDS011;9900;48.738;9.306;2022-07-23T07:04:06;7.70;;;6.00;;
4652;SDS011;9900;48.738;9.306;2022-07-23T07:06:37;5.90;;;5.30;;
4652;SDS011;9900;48.738;9.306;2022-07-23T07:09:06;5.60;;;4.67;;
4652;SDS011;9900;48.738;9.306;2022-07-23T07:11:35;5.70;;;5.20;;
4652;SDS011;9900;48.738;9.306;2022-07-23T07:14:04;5.63;;;5.03;;
4652;SDS011;9900;48.738;9.306;2022-07-23T07:16:33;10.60;;;5.63;;
4652;SDS011;9900;48.738;9.306;2022-07-23T07:19:02;5.73;;;5.13;;
4652;SDS011;9900;48.738;9.306;2022-07-23T07:21:31;8.93;;;5.03;;
4652;SDS011;9900;48.738;9.306;2022-07-23T07:24:02;7.07;;;5.40;;
4652;SDS011;9900;48.738;9.306;2022-07-23T07:26:31;4.73;;;4.27;;
4652;SDS011;9900;48.738;9.306;2022-07-23T07:28:59;5.60;;;5.10;;
4652;SDS011;9900;48.738;9.306;2022-07-23T07:31:29;5.10;;;4.60;;
4652;SDS011;9900;48.738;9.306;2022-07-23T07:33:58;5.63;;;4.83;;
4652;SDS011;9900;48.738;9.306;2022-07-23T07:36:27;5.40;;;4.87;;
4652;SDS011;9900;48.738;9.306;2022-07-23T07:38:56;8.77;;;5.73;;
4652;SDS011;9900;48.738;9.306;2022-07-23T07:41:26;5.80;;;5.10;;
4652;SDS011;9900;48.738;9.306;2022-07-23T07:43:55;6.80;;;5.30;;
4652;SDS011;9900;48.738;9.306;2022-07-23T07:46:24;5.83;;;5.03;;
4652;SDS011;9900;48.738;9.306;2022-07-23T07:48:54;5.93;;;4.93;;
4652;SDS011;9900;48.738;9.306;2022-07-23T07:51:25;7.90;;;4.80;;
4652;SDS011;9900;48.738;9.306;2022-07-23T07:53:54;4.63;;;4.23;;
4652;SDS011;9900;48.738;9.306;2022-07-23T07:56:23;6.77;;;4.87;;
4652;SDS011;9900;48.738;9.306;2022-07-23T07:58:53;7.40;;;5.37;;
4652;SDS011;9900;48.738;9.306;2022-07-23T08:01:23;5.20;;;4.70;;
4652;SDS011;9900;48.738;9.306;2022-07-23T08:03:52;5.90;;;5.00;;
4652;SDS011;9900;48.738;9.306;2022-07-23T08:06:21;7.60;;;4.50;;
4652;SDS011;9900;48.738;9.306;2022-07-23T08:08:50;7.30;;;5.00;;
4652;SDS011;9900;48.738;9.306;2022-07-23T08:11:18;7.13;;;4.73;;
4652;SDS011;9900;48.738;9.306;2022-07-23T08:13:47;11.00;;;5.17;;
4652;SDS011;9900;48.738;9.306;2022-07-23T08:16:17;10.93;;;4.63;;
4652;SDS011;9900;48.738;9.306;2022-07-23T08:18:46;6.63;;;4.77;;
4652;SDS011;9900;48.738;9.306;2022-07-23T08:21:15;6.90;;;5.30;;
4652;SDS011;9900;48.738;9.306;2022-07-23T08:23:44;8.90;;;5.03;;
4652;SDS011;9900;48.738;9.306;2022-07-23T08:26:13;15.43;;;5.70;;
4652;SDS011;9900;48.738;9.306;2022-07-23T08:28:42;5.30;;;4.80;;
4652;SDS011;9900;48.738;9.306;2022-07-23T08:31:11;7.50;;;5.40;;
4652;SDS011;9900;48.738;9.306;2022-07-23T08:33:41;6.20;;;5.50;;
4652;SDS011;9900;48.738;9.306;2022-07-23T08:36:10;7.73;;;4.97;;
4652;SDS011;9900;48.738;9.306;2022-07-23T08:38:39;7.33;;;5.67;;
4652;SDS011;9900;48.738;9.306;2022-07-23T08:41:07;6.67;;;5.10;;
4652;SDS011;9900;48.738;9.306;2022-07-23T08:43:36;5.57;;;5.07;;
4652;SDS011;9900;48.738;9.306;2022-07-23T08:46:08;5.40;;;4.90;;
4652;SDS011;9900;48.738;9.306;2022-07-23T08:48:37;6.23;;;5.27;;
4652;SDS011;9900;48.738;9.306;2022-07-23T08:51:09;6.00;;;5.40;;
4652;SDS011;9900;48.738;9.306;2022-07-23T08:53:37;5.10;;;4.60;;
4652;SDS011;9900;48.738;9.306;2022-07-23T08:56:08;5.80;;;5.30;;
4652;SDS011;9900;48.738;9.306;2022-07-23T08:58:36;5.60;;;5.03;;
4652;SDS011;9900;48.738;9.306;2022-07-23T09:01:05;13.43;;;4.70;;
4652;SDS011;9900;48.738;9.306;2022-07-23T09:03:35;6.80;;;5.13;;
4652;SDS011;9900;48.738;9.306;2022-07-23T09:06:07;5.60;;;5.10;;
4652;SDS011;9900;48.738;9.306;2022-07-23T09:08:37;6.20;;;5.50;;
4652;SDS011;9900;48.738;9.306;2022-07-23T09:11:07;6.07;;;5.43;;
4652;SDS011;9900;48.738;9.306;2022-07-23T09:13:37;5.80;;;5.17;;
4652;SDS011;9900;48.738;9.306;2022-07-23T09:16:10;5.60;;;5.10;;
4652;SDS011;9900;48.738;9.306;2022-07-23T09:18:41;6.97;;;5.10;;
4652;SDS011;9900;48.738;9.306;2022-07-23T09:21:17;4.93;;;4.50;;
4652;SDS011;9900;48.738;9.306;2022-07-23T09:23:52;5.17;;;4.67;;
4652;SDS011;9900;48.738;9.306;2022-07-23T09:26:28;5.40;;;4.90;;
4652;SDS011;9900;48.738;9.306;2022-07-23T09:29:00;5.40;;;4.40;;
4652;SDS011;9900;48.738;9.306;2022-07-23T09:31:32;8.47;;;4.57;;
4652;SDS011;9900;48.738;9.306;2022-07-23T09:34:07;5.10;;;4.60;;
4652;SDS011;9900;48.738;9.306;2022-07-23T09:36:38;5.30;;;4.73;;
4652;SDS011;9900;48.738;9.306;2022-07-23T09:39:08;5.10;;;4.50;;
4652;SDS011;9900;48.738;9.306;2022-07-23T09:41:38;8.80;;;5.00;;
4652;SDS011;9900;48.738;9.306;2022-07-23T09:44:08;7.10;;;5.20;;
4652;SDS011;9900;48.738;9.306;2022-07-23T09:46:39;8.87;;;4.93;;
4652;SDS011;9900;48.738;9.306;2022-07-23T09:49:13;5.17;;;4.50;;
4652;SDS011;9900;48.738;9.306;2022-07-23T09:51:45;5.07;;;4.67;;
4652;SDS011;9900;48.738;9.306;2022-07-23T09:54:23;5.00;;;4.60;;
4652;SDS011;9900;48.738;9.306;2022-07-23T09:56:58;4.93;;;4.53;;
4652;SDS011;9900;48.738;9.306;2022-07-23T09:59:28;5.10;;;4.60;;
4652;SDS011;9900;48.738;9.306;2022-07-23T10:01:58;5.13;;;4.73;;
4652;SDS011;9900;48.738;9.306;2022-07-23T10:04:28;5.30;;;4.43;;
4652;SDS011;9900;48.738;9.306;2022-07-23T10:07:01;5.10;;;4.60;;
4652;SDS011;9900;48.738;9.306;2022-07-23T10:09:32;4.90;;;4.50;;
4652;SDS011;9900;48.738;9.306;2022-07-23T10:12:05;4.37;;;3.97;;
4652;SDS011;9900;48.738;9.306;2022-07-23T10:14:48;5.47;;;4.43;;
4652;SDS011;9900;48.738;9.306;2022-07-23T10:17:18;4.80;;;4.23;;
4652;SDS011;9900;48.738;9.306;2022-07-23T10:19:47;6.30;;;4.43;;
4652;SDS011;9900;48.738;9.306;2022-07-23T10:22:19;4.80;;;4.10;;
4652;SDS011;9900;48.738;9.306;2022-07-23T10:24:54;5.50;;;4.43;;
4652;SDS011;9900;48.738;9.306;2022-07-23T10:27:43;5.77;;;4.83;;
4652;SDS011;9900;48.738;9.306;2022-07-23T10:30:17;5.03;;;4.53;;
4652;SDS011;9900;48.738;9.306;2022-07-23T10:32:51;9.37;;;4.80;;
4652;SDS011;9900;48.738;9.306;2022-07-23T10:35:26;4.50;;;4.10;;
4652;SDS011;9900;48.738;9.306;2022-07-23T10:38:11;5.10;;;4.60;;
4652;SDS011;9900;48.738;9.306;2022-07-23T10:40:53;4.20;;;3.80;;
4652;SDS011;9900;48.738;9.306;2022-07-23T10:43:23;5.93;;;4.43;;
4652;SDS011;9900;48.738;9.306;2022-07-23T10:45:52;4.73;;;4.30;;
4652;SDS011;9900;48.738;9.306;2022-07-23T10:48:21;4.87;;;4.40;;
4652;SDS011;9900;48.738;9.306;2022-07-23T10:51:06;4.27;;;3.87;;
4652;SDS011;9900;48.738;9.306;2022-07-23T10:56:49;4.67;;;4.20;;
4652;SDS011;9900;48.738;9.306;2022-07-23T10:59:19;4.70;;;4.30;;
4652;SDS011;9900;48.738;9.306;2022-07-23T11:01:48;5.57;;;4.60;;
4652;SDS011;9900;48.738;9.306;2022-07-23T11:04:19;5.50;;;4.60;;
4652;SDS011;9900;48.738;9.306;2022-07-23T11:07:06;4.90;;;4.40;;
4652;SDS011;9900;48.738;9.306;2022-07-23T11:09:41;5.93;;;4.63;;
4652;SDS011;9900;48.738;9.306;2022-07-23T11:15:08;6.80;;;4.87;;
4652;SDS011;9900;48.738;9.306;2022-07-23T11:17:39;4.87;;;4.37;;
4652;SDS011;9900;48.738;9.306;2022-07-23T11:20:28;5.07;;;4.20;;
4652;SDS011;9900;48.738;9.306;2022-07-23T11:22:57;5.50;;;4.37;;
4652;SDS011;9900;48.738;9.306;2022-07-23T11:25:30;5.53;;;4.50;;
4652;SDS011;9900;48.738;9.306;2022-07-23T11:28:08;4.33;;;3.93;;
4652;SDS011;9900;48.738;9.306;2022-07-23T11:30:41;4.80;;;4.37;;
4652;SDS011;9900;48.738;9.306;2022-07-23T11:33:15;4.93;;;4.53;;
4652;SDS011;9900;48.738;9.306;2022-07-23T11:35:49;4.83;;;4.43;;
4652;SDS011;9900;48.738;9.306;2022-07-23T11:38:30;5.67;;;4.37;;
4652;SDS011;9900;48.738;9.306;2022-07-23T11:41:02;4.20;;;3.70;;
4652;SDS011;9900;48.738;9.306;2022-07-23T11:43:37;5.10;;;4.67;;
4652;SDS011;9900;48.738;9.306;2022-07-23T11:46:09;4.37;;;3.90;;
4652;SDS011;9900;48.738;9.306;2022-07-23T11:48:38;4.60;;;4.20;;
4652;SDS011;9900;48.738;9.306;2022-07-23T11:51:07;4.97;;;4.47;;
4652;SDS011;9900;48.738;9.306;2022-07-23T11:53:36;5.10;;;4.40;;
4652;SDS011;9900;48.738;9.306;2022-07-23T11:56:08;6.20;;;3.50;;
4652;SDS011;9900;48.738;9.306;2022-07-23T11:58:39;4.40;;;4.00;;
4652;SDS011;9900;48.738;9.306;2022-07-23T12:01:08;4.83;;;4.43;;
4652;SDS011;9900;48.738;9.306;2022-07-23T12:03:48;5.37;;;4.87;;
4652;SDS011;9900;48.738;9.306;2022-07-23T12:06:18;5.03;;;4.53;;
4652;SDS011;9900;48.738;9.306;2022-07-23T12:08:47;6.73;;;4.70;;
4652;SDS011;9900;48.738;9.306;2022-07-23T12:11:17;4.20;;;3.90;;
4652;SDS011;9900;48.738;9.306;2022-07-23T12:13:55;4.90;;;4.40;;
4652;SDS011;9900;48.738;9.306;2022-07-23T12:16:24;4.83;;;4.33;;
4652;SDS011;9900;48.738;9.306;2022-07-23T12:18:53;4.53;;;4.13;;
4652;SDS011;9900;48.738;9.306;2022-07-23T12:21:22;5.10;;;3.93;;
4652;SDS011;9900;48.738;9.306;2022-07-23T12:23:51;3.73;;;3.43;;
4652;SDS011;9900;48.738;9.306;2022-07-23T12:26:21;4.90;;;4.50;;
4652;SDS011;9900;48.738;9.306;2022-07-23T12:28:51;5.37;;;4.00;;
4652;SDS011;9900;48.738;9.306;2022-07-23T12:31:25;6.07;;;3.90;;
4652;SDS011;9900;48.738;9.306;2022-07-23T12:33:54;4.90;;;4.50;;
4652;SDS011;9900;48.738;9.306;2022-07-23T12:36:36;4.93;;;4.43;;
4652;SDS011;9900;48.738;9.306;2022-07-23T12:39:06;5.20;;;3.73;;
4652;SDS011;9900;48.738;9.306;2022-07-23T12:41:52;5.43;;;4.10;;
4652;SDS011;9900;48.738;9.306;2022-07-23T12:44:21;4.27;;;3.87;;
4652;SDS011;9900;48.738;9.306;2022-07-23T12:46:51;5.23;;;4.63;;
4652;SDS011;9900;48.738;9.306;2022-07-23T12:49:27;4.90;;;4.40;;
4652;SDS011;9900;48.738;9.306;2022-07-23T12:51:56;6.27;;;4.70;;
4652;SDS011;9900;48.738;9.306;2022-07-23T12:54:26;5.40;;;4.90;;
4652;SDS011;9900;48.738;9.306;2022-07-23T12:56:57;7.10;;;4.50;;
4652;SDS011;9900;48.738;9.306;2022-07-23T12:59:30;5.27;;;4.77;;
4652;SDS011;9900;48.738;9.306;2022-07-23T13:02:00;5.97;;;5.43;;
4652;SDS011;9900;48.738;9.306;2022-07-23T13:04:30;5.10;;;4.60;;
4652;SDS011;9900;48.738;9.306;2022-07-23T13:07:01;7.10;;;4.50;;
4652;SDS011;9900;48.738;9.306;2022-07-23T13:09:32;5.40;;;4.70;;
4652;SDS011;9900;48.738;9.306;2022-07-23T13:12:23;5.40;;;4.90;;
4652;SDS011;9900;48.738;9.306;2022-07-23T13:14:52;5.30;;;4.80;;
4652;SDS011;9900;48.738;9.306;2022-07-23T13:17:21;5.23;;;4.80;;
4652;SDS011;9900;48.738;9.306;2022-07-23T13:19:50;4.80;;;4.40;;
4652;SDS011;9900;48.738;9.306;2022-07-23T13:22:19;5.17;;;4.70;;
4652;SDS011;9900;48.738;9.306;2022-07-23T13:24:48;5.37;;;4.90;;
4652;SDS011;9900;48.738;9.306;2022-07-23T13:27:17;6.40;;;5.10;;
4652;SDS011;9900;48.738;9.306;2022-07-23T13:29:47;5.60;;;5.10;;
4652;SDS011;9900;48.738;9.306;2022-07-23T13:32:16;6.07;;;5.40;;
4652;SDS011;9900;48.738;9.306;2022-07-23T13:34:45;5.70;;;5.20;;
4652;SDS011;9900;48.738;9.306;2022-07-23T13:37:16;6.20;;;4.73;;
4652;SDS011;9900;48.738;9.306;2022-07-23T13:39:45;6.67;;;5.23;;
4652;SDS011;9900;48.738;9.306;2022-07-23T13:42:15;11.13;;;5.60;;
4652;SDS011;9900;48.738;9.306;2022-07-23T13:44:45;8.53;;;5.27;;
4652;SDS011;9900;48.738;9.306;2022-07-23T13:47:16;6.37;;;5.50;;
4652;SDS011;9900;48.738;9.306;2022-07-23T13:49:45;4.80;;;4.40;;
4652;SDS011;9900;48.738;9.306;2022-07-23T13:52:14;6.07;;;5.40;;
4652;SDS011;9900;48.738;9.306;2022-07-23T13:54:43;5.50;;;5.00;;
4652;SDS011;9900;48.738;9.306;2022-07-23T13:57:12;5.40;;;4.90;;
4652;SDS011;9900;48.738;9.306;2022-07-23T13:59:41;6.70;;;4.80;;
4652;SDS011;9900;48.738;9.306;2022-07-23T14:02:10;6.47;;;5.17;;
4652;SDS011;9900;48.738;9.306;2022-07-23T14:04:52;5.73;;;4.77;;
4652;SDS011;9900;48.738;9.306;2022-07-23T14:07:21;5.10;;;4.70;;
4652;SDS011;9900;48.738;9.306;2022-07-23T14:09:49;5.77;;;5.27;;
4652;SDS011;9900;48.738;9.306;2022-07-23T14:12:19;6.97;;;5.03;;
4652;SDS011;9900;48.738;9.306;2022-07-23T14:14:50;6.77;;;5.47;;
4652;SDS011;9900;48.738;9.306;2022-07-23T14:17:20;5.20;;;4.70;;
4652;SDS011;9900;48.738;9.306;2022-07-23T14:19:52;6.60;;;5.10;;
4652;SDS011;9900;48.738;9.306;2022-07-23T14:22:21;6.27;;;5.67;;
4652;SDS011;9900;48.738;9.306;2022-07-23T14:24:50;5.60;;;4.63;;
4652;SDS011;9900;48.738;9.306;2022-07-23T14:27:19;6.43;;;5.20;;
4652;SDS011;9900;48.738;9.306;2022-07-23T14:29:48;6.00;;;5.40;;
4652;SDS011;9900;48.738;9.306;2022-07-23T14:32:17;12.10;;;4.97;;
4652;SDS011;9900;48.738;9.306;2022-07-23T14:34:46;7.10;;;4.70;;
4652;SDS011;9900;48.738;9.306;2022-07-23T14:37:17;5.90;;;4.90;;
4652;SDS011;9900;48.738;9.306;2022-07-23T14:39:46;7.90;;;5.97;;
4652;SDS011;9900;48.738;9.306;2022-07-23T14:42:35;7.47;;;5.50;;
4652;SDS011;9900;48.738;9.306;2022-07-23T14:45:05;6.33;;;5.73;;
4652;SDS011;9900;48.738;9.306;2022-07-23T14:47:37;6.73;;;6.13;;
4652;SDS011;9900;48.738;9.306;2022-07-23T14:50:25;6.10;;;5.50;;
4652;SDS011;9900;48.738;9.306;2022-07-23T14:52:55;10.77;;;5.90;;
4652;SDS011;9900;48.738;9.306;2022-07-23T14:55:27;7.00;;;6.13;;
4652;SDS011;9900;48.738;9.306;2022-07-23T14:57:56;7.13;;;5.73;;
4652;SDS011;9900;48.738;9.306;2022-07-23T15:00:27;9.40;;;6.37;;
4652;SDS011;9900;48.738;9.306;2022-07-23T15:02:56;10.43;;;5.90;;
4652;SDS011;9900;48.738;9.306;2022-07-23T15:05:25;5.50;;;5.00;;
4652;SDS011;9900;48.738;9.306;2022-07-23T15:07:57;7.27;;;5.67;;
4652;SDS011;9900;48.738;9.306;2022-07-23T15:10:26;6.13;;;5.63;;
4652;SDS011;9900;48.738;9.306;2022-07-23T15:12:57;8.13;;;5.70;;
4652;SDS011;9900;48.738;9.306;2022-07-23T15:15:25;5.97;;;5.37;;
4652;SDS011;9900;48.738;9.306;2022-07-23T15:17:54;5.60;;;5.10;;
4652;SDS011;9900;48.738;9.306;2022-07-23T15:20:23;5.47;;;4.90;;
4652;SDS011;9900;48.738;9.306;2022-07-23T15:23:06;5.80;;;5.20;;
4652;SDS011;9900;48.738;9.306;2022-07-23T15:25:36;8.30;;;5.20;;
4652;SDS011;9900;48.738;9.306;2022-07-23T15:28:06;6.17;;;4.90;;
4652;SDS011;9900;48.738;9.306;2022-07-23T15:30:35;8.07;;;5.70;;
4652;SDS011;9900;48.738;9.306;2022-07-23T15:33:04;6.30;;;5.70;;
4652;SDS011;9900;48.738;9.306;2022-07-23T15:35:37;7.00;;;6.27;;
4652;SDS011;9900;48.738;9.306;2022-07-23T15:38:07;10.63;;;6.13;;
4652;SDS011;9900;48.738;9.306;2022-07-23T15:40:39;5.97;;;5.30;;